createdAt,value
2023-04-03T00:00:26.708Z,2.08
2023-04-03T00:02:53.318Z,1.88
2023-04-03T00:05:19.996Z,1.88
2023-04-03T00:07:46.550Z,2.00
2023-04-03T00:10:13.519Z,1.57
2023-04-03T00:12:40.385Z,1.70
2023-04-03T00:15:07.429Z,1.50
2023-04-03T00:17:34.067Z,1.63
2023-04-03T00:20:00.605Z,1.98
2023-04-03T00:22:27.185Z,1.60
2023-04-03T00:24:53.713Z,2.00
2023-04-03T00:27:20.313Z,1.52
2023-04-03T00:29:46.955Z,1.60
2023-04-03T00:32:14.018Z,1.70
2023-04-03T00:34:40.540Z,1.60
2023-04-03T00:37:07.067Z,1.70
2023-04-03T00:39:33.732Z,1.90
2023-04-03T00:42:00.347Z,1.52
2023-04-03T00:44:36.007Z,1.50
2023-04-03T00:47:06.382Z,1.80
2023-04-03T00:49:33.071Z,1.60
2023-04-03T00:52:00.119Z,1.35
2023-04-03T00:54:27.396Z,1.48
2023-04-03T00:56:57.639Z,1.73
2023-04-03T00:59:32.652Z,1.63
2023-04-03T01:02:00.382Z,1.55
2023-04-03T01:04:39.621Z,1.42
2023-04-03T01:07:16.688Z,1.45
2023-04-03T01:09:44.124Z,1.60
2023-04-03T01:12:31.832Z,1.20
2023-04-03T01:15:05.894Z,1.38
2023-04-03T01:17:35.383Z,1.70
2023-04-03T01:20:20.308Z,1.52
2023-04-03T01:23:00.024Z,1.23
2023-04-03T01:25:27.293Z,1.30
2023-04-03T01:27:54.164Z,1.27
2023-04-03T01:30:24.922Z,1.40
2023-04-03T01:32:51.713Z,1.40
2023-04-03T01:35:18.441Z,1.33
2023-04-03T01:37:45.059Z,1.43
2023-04-03T01:40:11.998Z,1.40
2023-04-03T01:42:38.571Z,1.60
2023-04-03T01:45:05.620Z,1.55
2023-04-03T01:47:32.239Z,1.60
2023-04-03T01:49:58.832Z,1.40
2023-04-03T01:52:25.560Z,1.38
2023-04-03T01:54:52.193Z,1.42
2023-04-03T01:57:18.862Z,1.67
2023-04-03T01:59:45.460Z,1.25
2023-04-03T02:02:11.976Z,1.50
2023-04-03T02:04:38.693Z,1.15
2023-04-03T02:07:05.327Z,1.50
2023-04-03T02:09:31.861Z,1.70
2023-04-03T02:11:58.364Z,1.63
2023-04-03T02:14:24.921Z,1.73
2023-04-03T02:16:51.537Z,1.73
2023-04-03T02:19:18.266Z,1.40
2023-04-03T02:21:45.005Z,1.80
2023-04-03T02:24:11.530Z,1.60
2023-04-03T02:26:38.232Z,1.57
2023-04-03T02:29:04.871Z,1.40
2023-04-03T02:31:31.773Z,1.40
2023-04-03T02:33:58.442Z,1.23
2023-04-03T02:36:25.025Z,1.33
2023-04-03T02:38:51.653Z,1.60
2023-04-03T02:41:18.316Z,1.30
2023-04-03T02:43:44.960Z,1.40
2023-04-03T02:46:11.547Z,1.48
2023-04-03T02:48:38.406Z,1.38
2023-04-03T02:51:05.251Z,1.60
2023-04-03T02:53:31.877Z,1.52
2023-04-03T02:55:58.504Z,1.40
2023-04-03T02:58:25.063Z,1.45
2023-04-03T03:00:51.795Z,1.70
2023-04-03T03:03:18.331Z,1.77
2023-04-03T03:05:44.982Z,1.60
2023-04-03T03:08:11.650Z,1.60
2023-04-03T03:10:38.642Z,1.40
2023-04-03T03:13:05.586Z,1.42
2023-04-03T03:15:32.224Z,1.50
2023-04-03T03:17:58.943Z,1.60
2023-04-03T03:20:25.585Z,1.60
2023-04-03T03:22:52.170Z,1.60
2023-04-03T03:25:18.797Z,1.80
2023-04-03T03:27:45.384Z,1.50
2023-04-03T03:30:12.309Z,1.60
2023-04-03T03:32:38.945Z,1.80
2023-04-03T03:35:05.955Z,1.70
2023-04-03T03:37:32.498Z,1.63
2023-04-03T03:39:59.128Z,1.77
2023-04-03T03:42:25.633Z,2.13
2023-04-03T03:44:52.192Z,1.67
2023-04-03T03:47:18.779Z,1.40
2023-04-03T03:49:45.292Z,1.92
2023-04-03T03:52:11.954Z,1.60
2023-04-03T03:54:38.958Z,1.63
2023-04-03T03:57:05.651Z,1.88
2023-04-03T03:59:32.252Z,1.70
2023-04-03T04:01:58.935Z,1.85
2023-04-03T04:04:25.716Z,1.60
2023-04-03T04:06:52.402Z,1.58
2023-04-03T04:09:18.910Z,1.60
2023-04-03T04:11:45.453Z,1.35
2023-04-03T04:14:12.042Z,1.48
2023-04-03T04:16:38.719Z,1.40
2023-04-03T04:19:06.752Z,1.50
2023-04-03T04:21:35.330Z,1.80
2023-04-03T04:24:02.013Z,1.80
2023-04-03T04:26:28.562Z,6.15
2023-04-03T04:28:55.157Z,3.70
2023-04-03T04:31:21.805Z,2.13
2023-04-03T04:33:48.498Z,1.70
2023-04-03T04:36:15.516Z,1.58
2023-04-03T04:38:42.608Z,1.80
2023-04-03T04:41:09.834Z,1.50
2023-04-03T04:43:36.748Z,1.60
2023-04-03T04:46:11.284Z,1.95
2023-04-03T04:48:38.130Z,1.55
2023-04-03T04:51:05.001Z,1.70
2023-04-03T04:53:31.547Z,1.90
2023-04-03T04:55:58.091Z,1.63
2023-04-03T04:58:24.914Z,1.90
2023-04-03T05:00:51.483Z,1.63
2023-04-03T05:03:18.010Z,1.70
2023-04-03T05:05:44.614Z,1.80
2023-04-03T05:08:11.242Z,1.70
2023-04-03T05:10:37.787Z,1.48
2023-04-03T05:13:04.371Z,1.50
2023-04-03T05:15:30.898Z,1.70
2023-04-03T05:17:57.497Z,1.63
2023-04-03T05:20:24.148Z,1.40
2023-04-03T05:22:50.887Z,1.50
2023-04-03T05:25:17.549Z,1.50
2023-04-03T05:27:44.305Z,1.35
2023-04-03T05:30:11.497Z,1.60
2023-04-03T05:32:48.160Z,1.50
2023-04-03T05:35:14.957Z,1.30
2023-04-03T05:37:41.646Z,1.38
2023-04-03T05:40:09.838Z,1.50
2023-04-03T05:42:36.714Z,1.47
2023-04-03T05:45:03.583Z,1.20
2023-04-03T05:47:32.294Z,1.38
2023-04-03T05:50:01.393Z,1.00
2023-04-03T05:52:31.038Z,1.00
2023-04-03T05:54:58.751Z,0.90
2023-04-03T05:57:27.799Z,0.90
2023-04-03T05:59:54.412Z,1.20
2023-04-03T06:02:26.219Z,0.85
2023-04-03T06:04:53.720Z,1.20
2023-04-03T06:07:22.919Z,1.10
2023-04-03T06:09:51.694Z,1.10
2023-04-03T06:12:19.717Z,1.10
2023-04-03T06:14:46.527Z,0.98
2023-04-03T06:17:13.391Z,1.23
2023-04-03T06:19:40.624Z,1.27
2023-04-03T06:22:07.489Z,0.77
2023-04-03T06:24:36.492Z,1.25
2023-04-03T06:27:03.219Z,1.20
2023-04-03T06:29:29.766Z,1.17
2023-04-03T06:31:59.317Z,1.00
2023-04-03T06:34:25.931Z,1.45
2023-04-03T06:36:52.544Z,1.10
2023-04-03T06:39:21.551Z,0.88
2023-04-03T06:41:48.260Z,1.00
2023-04-03T06:44:14.878Z,0.80
2023-04-03T06:46:41.498Z,0.80
2023-04-03T06:49:10.684Z,1.00
2023-04-03T06:51:37.869Z,0.80
2023-04-03T06:54:06.193Z,0.80
2023-04-03T06:56:33.002Z,0.70
2023-04-03T06:58:59.823Z,0.80
2023-04-03T07:01:32.769Z,0.85
2023-04-03T07:03:59.889Z,0.80
2023-04-03T07:06:26.604Z,0.70
2023-04-03T07:08:56.629Z,0.60
2023-04-03T07:11:23.357Z,0.80
2023-04-03T07:13:50.423Z,1.60
2023-04-03T07:16:17.110Z,1.30
2023-04-03T07:18:44.024Z,0.80
2023-04-03T07:21:10.681Z,1.07
2023-04-03T07:23:37.819Z,0.70
2023-04-03T07:26:04.420Z,0.90
2023-04-03T07:28:33.959Z,0.73
2023-04-03T07:31:01.800Z,0.60
2023-04-03T07:33:28.522Z,0.80
2023-04-03T07:35:55.278Z,0.70
2023-04-03T07:38:21.866Z,0.88
2023-04-03T07:40:50.231Z,0.90
2023-04-03T07:43:18.626Z,0.70
2023-04-03T07:45:45.456Z,0.50
2023-04-03T07:48:14.039Z,0.60
2023-04-03T07:50:44.979Z,0.80
2023-04-03T07:53:12.042Z,0.50
2023-04-03T07:55:38.847Z,0.50
2023-04-03T07:58:06.869Z,0.60
2023-04-03T08:00:33.425Z,0.60
2023-04-03T08:03:00.095Z,0.50
2023-04-03T08:05:26.844Z,0.80
2023-04-03T08:07:53.462Z,0.85
2023-04-03T08:10:20.424Z,0.70
2023-04-03T08:12:49.007Z,0.70
2023-04-03T08:15:18.929Z,0.88
2023-04-03T08:17:45.586Z,0.82
2023-04-03T08:20:14.307Z,1.75
2023-04-03T08:22:43.766Z,0.97
2023-04-03T08:25:13.056Z,0.85
2023-04-03T08:27:41.828Z,1.10
2023-04-03T08:30:09.250Z,0.70
2023-04-03T08:32:39.846Z,0.80
2023-04-03T08:35:06.666Z,0.73
2023-04-03T08:37:37.867Z,0.95
2023-04-03T08:40:13.543Z,0.90
2023-04-03T08:42:55.186Z,0.80
2023-04-03T08:45:46.277Z,2.10
2023-04-03T08:48:18.181Z,0.80
2023-04-03T08:50:48.651Z,0.90
2023-04-03T08:53:18.450Z,0.80
2023-04-03T08:55:50.865Z,0.90
2023-04-03T08:58:28.420Z,0.80
2023-04-03T09:01:06.157Z,0.70
2023-04-03T09:03:45.062Z,1.35
2023-04-03T09:06:19.887Z,0.80
2023-04-03T09:09:11.486Z,1.17
2023-04-03T09:11:47.332Z,1.20
2023-04-03T09:14:26.576Z,1.10
2023-04-03T09:16:57.401Z,1.20
2023-04-03T09:19:33.399Z,0.90
2023-04-03T09:22:12.765Z,0.70
2023-04-03T09:24:39.701Z,0.80
2023-04-03T09:27:13.155Z,0.70
2023-04-03T09:29:45.429Z,1.77
2023-04-03T09:32:33.300Z,0.85
2023-04-03T09:35:19.172Z,0.80
2023-04-03T09:37:54.334Z,0.90
2023-04-03T09:40:27.172Z,0.80
2023-04-03T09:43:01.617Z,0.70
2023-04-03T09:45:30.290Z,1.02
2023-04-03T09:48:16.849Z,0.80
2023-04-03T09:51:00.389Z,0.90
2023-04-03T09:53:29.552Z,1.10
2023-04-03T09:55:56.555Z,0.85
2023-04-03T09:58:49.065Z,0.82
2023-04-03T10:01:38.135Z,1.08
2023-04-03T10:04:20.965Z,1.17
2023-04-03T10:06:59.590Z,0.90
2023-04-03T10:09:33.905Z,0.80
2023-04-03T10:12:07.530Z,0.90
2023-04-03T10:14:35.991Z,1.52
2023-04-03T10:17:02.674Z,1.00
2023-04-03T10:19:45.928Z,1.30
2023-04-03T10:22:35.387Z,1.15
2023-04-03T10:25:13.970Z,1.23
2023-04-03T10:27:56.528Z,1.65
2023-04-03T10:30:41.809Z,1.27
2023-04-03T10:33:09.438Z,1.00
2023-04-03T10:36:05.105Z,1.02
2023-04-03T10:38:40.758Z,1.10
2023-04-03T10:41:32.220Z,1.02
2023-04-03T10:44:50.958Z,1.02
2023-04-03T10:47:21.854Z,1.00
2023-04-03T10:50:23.565Z,1.42
2023-04-03T10:53:38.195Z,1.00
2023-04-03T10:56:17.200Z,1.08
2023-04-03T10:58:51.920Z,1.38
2023-04-03T11:01:27.802Z,1.40
2023-04-03T11:03:57.582Z,1.20
2023-04-03T11:06:27.893Z,1.00
2023-04-03T11:09:19.541Z,1.05
2023-04-03T11:11:46.838Z,0.85
2023-04-03T11:14:21.876Z,0.97
2023-04-03T11:16:54.333Z,1.55
2023-04-03T11:19:25.285Z,0.90
2023-04-03T11:22:07.050Z,0.90
2023-04-03T11:24:35.036Z,0.98
2023-04-03T11:27:04.661Z,1.00
2023-04-03T11:29:39.137Z,1.17
2023-04-03T11:32:48.018Z,1.05
2023-04-03T11:35:16.381Z,1.73
2023-04-03T11:37:50.930Z,1.30
2023-04-03T11:40:33.685Z,0.93
2023-04-03T11:43:00.530Z,1.00
2023-04-03T11:45:37.542Z,1.75
2023-04-03T11:48:34.136Z,1.25
2023-04-03T11:51:14.350Z,1.20
2023-04-03T11:53:41.752Z,1.40
2023-04-03T11:56:26.358Z,2.10
2023-04-03T11:59:14.064Z,1.48
2023-04-03T12:01:45.137Z,1.33
2023-04-03T12:04:14.044Z,1.90
2023-04-03T12:06:59.352Z,0.97
2023-04-03T12:09:55.191Z,1.27
2023-04-03T12:12:41.384Z,1.38
2023-04-03T12:15:20.595Z,2.38
2023-04-03T12:17:47.360Z,1.63
2023-04-03T12:20:48.075Z,1.37
2023-04-03T12:23:33.727Z,1.42
2023-04-03T12:26:06.349Z,1.30
2023-04-03T12:28:43.026Z,1.38
2023-04-03T12:31:12.544Z,2.17
2023-04-03T12:33:58.664Z,1.97
2023-04-03T12:36:44.790Z,2.13
2023-04-03T12:39:16.412Z,1.88
2023-04-03T12:42:05.875Z,1.92
2023-04-03T12:44:54.947Z,1.70
2023-04-03T12:47:34.993Z,2.53
2023-04-03T12:50:04.599Z,1.92
2023-04-03T12:52:44.867Z,2.40
2023-04-03T12:55:19.821Z,1.48
2023-04-03T12:58:16.279Z,1.40
2023-04-03T13:00:42.921Z,1.90
2023-04-03T13:03:27.128Z,1.98
2023-04-03T13:05:58.604Z,1.92
2023-04-03T13:08:25.297Z,1.55
2023-04-03T13:10:57.134Z,2.13
2023-04-03T13:13:24.192Z,1.10
2023-04-03T13:15:51.452Z,1.40
2023-04-03T13:18:23.973Z,1.80
2023-04-03T13:20:52.356Z,2.22
2023-04-03T13:23:25.171Z,2.72
2023-04-03T13:26:00.181Z,2.07
2023-04-03T13:28:27.178Z,2.55
2023-04-03T13:31:25.823Z,3.42
2023-04-03T13:34:11.458Z,2.67
2023-04-03T13:36:42.145Z,1.85
2023-04-03T13:39:26.948Z,1.80
2023-04-03T13:41:59.656Z,2.95
2023-04-03T13:44:33.088Z,2.45
2023-04-03T13:47:01.845Z,2.63
2023-04-03T13:49:41.252Z,2.10
2023-04-03T13:52:32.283Z,2.97
2023-04-03T13:55:24.285Z,2.67
2023-04-03T13:57:56.998Z,4.47
2023-04-03T14:01:01.552Z,2.92
2023-04-03T14:03:35.042Z,2.80
2023-04-03T14:06:02.958Z,2.17
2023-04-03T14:08:40.167Z,2.58
2023-04-03T14:11:22.630Z,2.47
2023-04-03T14:13:49.729Z,2.78
2023-04-03T14:16:19.483Z,2.03
2023-04-03T14:18:47.450Z,2.30
2023-04-03T14:21:16.592Z,2.10
2023-04-03T14:23:43.368Z,4.10
2023-04-03T14:26:13.872Z,2.28
2023-04-03T14:28:42.232Z,3.22
2023-04-03T14:31:13.052Z,2.40
2023-04-03T14:33:40.525Z,2.92
2023-04-03T14:36:17.581Z,3.60
2023-04-03T14:38:46.255Z,2.65
2023-04-03T14:41:18.320Z,2.78
2023-04-03T14:43:45.977Z,2.80
2023-04-03T14:46:48.430Z,2.60
2023-04-03T14:49:26.064Z,2.78
2023-04-03T14:51:53.359Z,3.13
2023-04-03T14:54:22.530Z,3.17
2023-04-03T14:56:49.105Z,3.03
2023-04-03T14:59:16.023Z,3.10
2023-04-03T15:01:42.659Z,3.78
2023-04-03T15:04:27.517Z,2.47
2023-04-03T15:06:54.251Z,3.03
2023-04-03T15:09:23.611Z,2.83
2023-04-03T15:11:51.739Z,2.78
2023-04-03T15:14:29.971Z,3.08
2023-04-03T15:17:03.474Z,2.70
2023-04-03T15:19:34.159Z,2.72
2023-04-03T15:22:00.790Z,2.37
2023-04-03T15:24:27.323Z,2.00
2023-04-03T15:26:54.026Z,2.47
2023-04-03T15:29:20.576Z,2.50
2023-04-03T15:31:47.164Z,2.70
2023-04-03T15:36:45.341Z,2.00
2023-04-03T15:39:11.909Z,2.25
2023-04-03T15:41:38.461Z,3.03
2023-04-03T15:44:05.198Z,2.75
2023-04-03T15:46:31.858Z,3.20
2023-04-03T15:48:58.481Z,2.30
2023-04-03T15:51:25.074Z,2.55
2023-04-03T15:53:51.567Z,2.10
2023-04-03T15:56:18.124Z,2.40
2023-04-03T15:58:44.633Z,2.50
2023-04-03T16:01:12.140Z,2.83
2023-04-03T16:03:41.960Z,2.22
2023-04-03T16:06:08.591Z,2.55
2023-04-03T16:08:35.222Z,2.38
2023-04-03T16:11:01.918Z,2.40
2023-04-03T16:13:28.568Z,2.15
2023-04-03T16:15:56.061Z,2.30
2023-04-03T16:18:22.914Z,2.63
2023-04-03T16:20:49.756Z,2.80
2023-04-03T16:25:49.392Z,2.70
2023-04-03T16:28:16.824Z,2.80
2023-04-03T16:30:45.276Z,2.10
2023-04-03T16:33:12.894Z,2.28
2023-04-03T16:35:40.417Z,2.10
2023-04-03T16:38:07.104Z,2.20
2023-04-03T16:40:33.722Z,2.38
2023-04-03T16:43:01.976Z,2.30
2023-04-03T16:45:28.744Z,2.50
2023-04-03T16:47:55.409Z,2.60
2023-04-03T16:50:22.072Z,3.03
2023-04-03T16:52:48.682Z,2.90
2023-04-03T16:55:15.233Z,3.42
2023-04-03T16:57:41.813Z,2.22
2023-04-03T17:00:11.484Z,2.10
2023-04-03T17:02:38.130Z,2.38
2023-04-03T17:05:05.127Z,3.13
2023-04-03T17:07:31.810Z,2.53
2023-04-03T17:09:58.461Z,3.25
2023-04-03T17:12:25.177Z,4.03
2023-04-03T17:14:51.717Z,2.60
2023-04-03T17:17:25.247Z,2.40
2023-04-03T17:19:52.240Z,2.35
2023-04-03T17:22:18.749Z,2.20
2023-04-03T17:24:46.224Z,2.73
2023-04-03T17:27:13.158Z,2.40
2023-04-03T17:29:39.694Z,2.92
2023-04-03T17:32:06.240Z,2.63
2023-04-03T17:34:33.154Z,2.20
2023-04-03T17:37:00.125Z,2.80
2023-04-03T17:39:26.827Z,2.30
2023-04-03T17:41:53.443Z,3.28
2023-04-03T17:44:20.005Z,2.88
2023-04-03T17:46:46.630Z,3.38
2023-04-03T17:49:13.201Z,2.80
2023-04-03T17:51:39.762Z,2.63
2023-04-03T17:54:06.333Z,2.78
2023-04-03T17:56:33.106Z,2.05
2023-04-03T17:58:59.933Z,1.90
2023-04-03T18:01:30.112Z,1.63
2023-04-03T18:04:00.309Z,1.90
2023-04-03T18:06:30.799Z,1.77
2023-04-03T18:09:21.214Z,1.77
2023-04-03T18:11:48.644Z,2.53
2023-04-03T18:14:19.020Z,1.87
2023-04-03T18:16:45.654Z,2.25
2023-04-03T18:19:22.807Z,1.70
2023-04-03T18:21:52.406Z,2.30
2023-04-03T18:24:21.835Z,1.73
2023-04-03T18:26:54.076Z,1.77
2023-04-03T18:29:21.251Z,2.00
2023-04-03T18:31:52.419Z,3.05
2023-04-03T18:34:19.061Z,2.33
2023-04-03T18:36:45.685Z,2.25
2023-04-03T18:39:12.568Z,2.70
2023-04-03T18:41:39.317Z,2.10
2023-04-03T18:44:10.385Z,2.70
2023-04-03T18:49:11.019Z,2.35
2023-04-03T18:51:37.726Z,1.90
2023-04-03T18:54:05.283Z,2.63
2023-04-03T18:56:32.289Z,2.33
2023-04-03T18:58:58.890Z,5.88
2023-04-03T19:01:25.569Z,2.13
2023-04-03T19:03:52.380Z,2.33
2023-04-03T19:06:19.264Z,3.10
2023-04-03T19:08:46.618Z,2.58
2023-04-03T19:11:13.142Z,2.38
2023-04-03T19:13:46.858Z,2.55
2023-04-03T19:16:24.589Z,2.33
2023-04-03T19:18:51.712Z,2.97
2023-04-03T19:21:18.515Z,2.88
2023-04-03T19:23:45.087Z,2.00
2023-04-03T19:26:13.452Z,2.28
2023-04-03T19:28:40.598Z,2.67
2023-04-03T19:31:15.983Z,2.70
2023-04-03T19:33:43.331Z,2.85
2023-04-03T19:36:11.429Z,2.40
2023-04-03T19:38:39.145Z,2.58
2023-04-03T19:41:15.917Z,2.63
2023-04-03T19:43:42.749Z,2.60
2023-04-03T19:46:09.716Z,2.60
2023-04-03T19:48:36.996Z,2.58
2023-04-03T19:51:04.459Z,2.30
2023-04-03T19:53:31.780Z,3.10
2023-04-03T19:55:58.944Z,2.70
2023-04-03T19:58:26.110Z,2.58
2023-04-03T20:00:54.140Z,2.72
2023-04-03T20:03:21.861Z,2.60
2023-04-03T20:05:48.469Z,2.73
2023-04-03T20:08:15.428Z,2.50
2023-04-03T20:10:42.141Z,2.50
2023-04-03T20:13:10.395Z,2.30
2023-04-03T20:15:41.393Z,3.00
2023-04-03T20:18:10.155Z,2.53
2023-04-03T20:20:39.340Z,2.55
2023-04-03T20:23:06.004Z,2.83
2023-04-03T20:28:02.189Z,2.60
2023-04-03T20:30:28.862Z,3.17
2023-04-03T20:32:55.398Z,2.92
2023-04-03T20:35:21.990Z,3.05
2023-04-03T20:37:48.565Z,3.03
2023-04-03T20:40:15.240Z,2.63
2023-04-03T20:42:41.935Z,2.90
2023-04-03T20:45:08.892Z,2.97
2023-04-03T20:47:35.689Z,2.80
2023-04-03T20:50:02.479Z,2.75
2023-04-03T20:52:29.071Z,3.03
2023-04-03T20:54:55.626Z,3.13
2023-04-03T20:57:22.297Z,3.35
2023-04-03T20:59:52.753Z,2.90
2023-04-03T21:02:19.430Z,3.08
2023-04-03T21:04:53.273Z,3.03
2023-04-03T21:07:57.410Z,3.63
2023-04-03T21:11:01.458Z,3.13
2023-04-03T21:14:05.705Z,2.85
2023-04-03T21:16:32.200Z,3.33
2023-04-03T21:19:22.210Z,3.00
2023-04-03T21:21:49.115Z,3.00
2023-04-03T21:24:17.377Z,3.38
2023-04-03T21:26:44.540Z,2.90
2023-04-03T21:29:11.433Z,3.30
2023-04-03T21:31:53.043Z,3.28
2023-04-03T21:34:21.521Z,3.37
2023-04-03T21:36:48.241Z,3.30
2023-04-03T21:39:14.778Z,3.05
2023-04-03T21:41:41.381Z,3.92
2023-04-03T21:44:08.149Z,3.08
2023-04-03T21:46:34.909Z,3.10
2023-04-03T21:49:01.508Z,3.63
2023-04-03T21:51:28.159Z,3.20
2023-04-03T21:53:55.434Z,3.22
2023-04-03T21:56:22.556Z,2.95
2023-04-03T21:58:49.189Z,3.43
2023-04-03T22:01:17.075Z,3.25
2023-04-03T22:03:44.805Z,3.53
2023-04-03T22:06:14.908Z,3.28
2023-04-03T22:08:42.175Z,2.83
2023-04-03T22:11:13.415Z,3.20
2023-04-03T22:13:41.229Z,2.60
2023-04-03T22:16:08.747Z,2.78
2023-04-03T22:18:37.013Z,2.95
2023-04-03T22:21:03.951Z,2.83
2023-04-03T22:23:30.644Z,3.07
2023-04-03T22:26:08.142Z,2.85
2023-04-03T22:28:37.737Z,2.95
2023-04-03T22:31:08.840Z,3.28
2023-04-03T22:33:36.025Z,3.00
2023-04-03T22:36:07.329Z,3.27
2023-04-03T22:38:34.355Z,3.35
2023-04-03T22:41:08.109Z,2.90
2023-04-03T22:43:36.512Z,2.67
2023-04-03T22:46:05.448Z,2.67
2023-04-03T22:48:32.277Z,2.83
2023-04-03T22:50:59.322Z,3.03
2023-04-03T22:53:25.863Z,3.50
2023-04-03T22:55:56.863Z,2.75
2023-04-03T22:58:23.664Z,3.83
2023-04-03T23:00:50.204Z,3.27
2023-04-03T23:03:16.882Z,3.38
2023-04-03T23:05:43.451Z,3.15
2023-04-03T23:08:09.978Z,3.20
2023-04-03T23:10:36.840Z,3.10
2023-04-03T23:13:06.217Z,3.40
2023-04-03T23:15:35.505Z,2.92
2023-04-03T23:18:02.075Z,3.67
2023-04-03T23:20:28.753Z,3.13
2023-04-03T23:22:57.738Z,3.35
2023-04-03T23:25:24.273Z,3.07
2023-04-03T23:27:51.718Z,3.55
2023-04-03T23:30:18.417Z,3.10
2023-04-03T23:32:45.437Z,2.58
2023-04-03T23:35:11.993Z,3.00
2023-04-03T23:37:38.536Z,2.73
2023-04-03T23:40:05.691Z,3.80
2023-04-03T23:42:32.307Z,3.47
2023-04-03T23:44:58.793Z,2.70
2023-04-03T23:47:25.401Z,3.13
2023-04-03T23:49:51.945Z,3.00
2023-04-03T23:52:18.976Z,2.70
2023-04-03T23:54:45.580Z,3.33
2023-04-03T23:57:12.220Z,2.67
2023-04-03T23:59:42.334Z,2.85
